createdAt,value
2022-08-31T00:00:40.156Z,1.12
2022-08-31T00:04:40.638Z,1.3
2022-08-31T00:08:40.449Z,1.4
2022-08-31T00:12:40.696Z,1.5
2022-08-31T00:16:41.079Z,1.7
2022-08-31T00:20:40.517Z,1.23
2022-08-31T00:24:40.440Z,1.3
2022-08-31T00:28:40.820Z,1.6
2022-08-31T00:32:40.427Z,1.15
2022-08-31T00:36:40.285Z,1.4
2022-08-31T00:40:44.577Z,1.2
2022-08-31T00:44:40.428Z,2.28
2022-08-31T00:48:40.282Z,1.67
2022-08-31T00:52:40.926Z,1.5
2022-08-31T00:56:40.463Z,1.33
2022-08-31T01:00:39.727Z,1.52
2022-08-31T01:04:40.826Z,1.5
2022-08-31T01:08:40.486Z,1.62
2022-08-31T01:12:40.540Z,1.4
2022-08-31T01:16:40.714Z,1.52
2022-08-31T01:20:41.256Z,1.7
2022-08-31T01:24:40.394Z,1.62
2022-08-31T01:28:40.564Z,2.65
2022-08-31T01:32:40.591Z,2.33
2022-08-31T01:36:40.494Z,1.7
2022-08-31T01:40:40.675Z,1.25
2022-08-31T01:44:40.426Z,1.9
2022-08-31T01:48:41.526Z,1.83
2022-08-31T01:52:40.846Z,1.33
2022-08-31T01:56:40.430Z,1.7
2022-08-31T02:00:41.064Z,1.45
2022-08-31T02:04:40.792Z,1.9
2022-08-31T02:08:40.705Z,2.08
2022-08-31T02:12:40.477Z,1.8
2022-08-31T02:16:41.166Z,1.5
2022-08-31T02:20:40.478Z,1.95
2022-08-31T02:24:40.574Z,1.6
2022-08-31T02:28:40.275Z,1.5
2022-08-31T02:32:40.504Z,1.77
2022-08-31T02:36:40.597Z,1.5
2022-08-31T02:40:40.487Z,1.83
2022-08-31T02:44:40.482Z,1.42
2022-08-31T02:48:40.534Z,1.73
2022-08-31T02:52:40.439Z,1.5
2022-08-31T02:56:40.495Z,1.77
2022-08-31T03:00:40.713Z,1.6
2022-08-31T03:04:40.426Z,1.52
2022-08-31T03:08:40.537Z,1.25
2022-08-31T03:12:40.509Z,1.42
2022-08-31T03:16:40.373Z,1.27
2022-08-31T03:20:40.671Z,1.3
2022-08-31T03:24:40.456Z,1.55
2022-08-31T03:28:40.514Z,1.3
2022-08-31T03:32:40.435Z,1.23
2022-08-31T03:36:40.462Z,1.15
2022-08-31T03:40:40.665Z,1.6
2022-08-31T03:44:40.610Z,2
2022-08-31T03:48:40.417Z,1.6
2022-08-31T03:52:40.902Z,1.58
2022-08-31T03:56:40.158Z,3.33
2022-08-31T04:00:40.490Z,1.5
2022-08-31T04:04:40.231Z,1.67
2022-08-31T04:08:40.504Z,1.52
2022-08-31T04:12:40.574Z,1.67
2022-08-31T04:16:40.396Z,1.62
2022-08-31T04:20:40.779Z,1.92
2022-08-31T04:24:40.501Z,1.8
2022-08-31T04:28:40.545Z,1.77
2022-08-31T04:32:40.117Z,2.15
2022-08-31T04:36:40.842Z,2.03
2022-08-31T04:40:41.235Z,1.95
2022-08-31T04:44:40.472Z,1.3
2022-08-31T04:48:40.333Z,1.7
2022-08-31T04:52:40.573Z,1.6
2022-08-31T04:56:40.085Z,1.5
2022-08-31T05:00:41.091Z,1.7
2022-08-31T05:04:40.435Z,1.6
2022-08-31T05:08:40.424Z,1.55
2022-08-31T05:12:40.543Z,1.77
2022-08-31T05:16:40.757Z,1.5
2022-08-31T05:20:40.489Z,1.3
2022-08-31T05:24:40.516Z,1.75
2022-08-31T05:28:40.489Z,1.55
2022-08-31T05:32:40.504Z,1.33
2022-08-31T05:36:40.089Z,1.6
2022-08-31T05:40:41.129Z,1.73
2022-08-31T05:44:40.639Z,1.73
2022-08-31T05:48:40.676Z,1.4
2022-08-31T05:52:40.457Z,1.73
2022-08-31T05:56:40.615Z,1.4
2022-08-31T06:00:40.528Z,1.6
2022-08-31T06:04:40.384Z,2
2022-08-31T06:08:40.608Z,1.5
2022-08-31T06:12:40.553Z,1.52
2022-08-31T06:16:40.982Z,1.45
2022-08-31T06:20:40.519Z,1.73
2022-08-31T06:24:40.454Z,2.1
2022-08-31T06:28:40.517Z,1.58
2022-08-31T06:32:40.547Z,1.98
2022-08-31T06:36:41.064Z,1
2022-08-31T06:40:39.916Z,1.5
2022-08-31T06:44:40.476Z,1.35
2022-08-31T06:48:40.487Z,1.5
2022-08-31T06:52:40.682Z,1.87
2022-08-31T06:56:39.604Z,1.4
2022-08-31T07:00:40.565Z,1.75
2022-08-31T07:04:40.542Z,1.5
2022-08-31T07:08:40.473Z,1.35
2022-08-31T07:12:40.140Z,1.2
2022-08-31T07:16:40.622Z,1.58
2022-08-31T07:20:41.048Z,1.48
2022-08-31T07:24:40.418Z,1.55
2022-08-31T07:28:40.361Z,1.62
2022-08-31T07:32:40.213Z,1.3
2022-08-31T07:36:40.537Z,1.23
2022-08-31T07:40:41.782Z,1.4
2022-08-31T07:44:40.838Z,1.33
2022-08-31T07:48:40.580Z,1.4
2022-08-31T07:52:40.525Z,1.4
2022-08-31T07:56:40.495Z,2.35
2022-08-31T08:00:41.034Z,1.6
2022-08-31T08:04:40.742Z,1.5
2022-08-31T08:08:41.021Z,1.15
2022-08-31T08:12:40.488Z,1.7
2022-08-31T08:16:41.189Z,1.45
2022-08-31T08:20:40.588Z,1.4
2022-08-31T08:24:40.858Z,1.4
2022-08-31T08:28:41.424Z,1.3
2022-08-31T08:32:40.669Z,1.15
2022-08-31T08:36:40.556Z,1.6
2022-08-31T08:40:40.651Z,1.3
2022-08-31T08:44:40.409Z,1.3
2022-08-31T08:48:40.494Z,0.95
2022-08-31T08:52:39.788Z,1.2
2022-08-31T08:56:40.552Z,1.83
2022-08-31T09:00:40.752Z,1.15
2022-08-31T09:04:40.419Z,1.27
2022-08-31T09:08:40.474Z,1.1
2022-08-31T09:12:40.658Z,0.88
2022-08-31T09:16:41.141Z,1.15
2022-08-31T09:20:40.494Z,1.25
2022-08-31T09:24:40.558Z,1.05
2022-08-31T09:28:40.507Z,1.27
2022-08-31T09:32:40.798Z,1.23
2022-08-31T09:36:40.619Z,0.8
2022-08-31T09:40:40.990Z,1.05
2022-08-31T09:44:40.419Z,1.08
2022-08-31T09:48:40.832Z,1
2022-08-31T09:52:40.544Z,1.27
2022-08-31T09:56:40.513Z,0.95
2022-08-31T10:00:40.790Z,1
2022-08-31T10:04:41.213Z,0.88
2022-08-31T10:08:40.490Z,1.2
2022-08-31T10:12:40.567Z,1
2022-08-31T10:16:40.778Z,0.6
2022-08-31T10:20:40.544Z,1.05
2022-08-31T10:24:40.481Z,1
2022-08-31T10:28:39.749Z,1.1
2022-08-31T10:32:40.382Z,1.2
2022-08-31T10:36:40.436Z,1
2022-08-31T10:40:41.438Z,0.9
2022-08-31T10:44:40.400Z,1.1
2022-08-31T10:48:40.440Z,0.98
2022-08-31T10:52:40.442Z,1.2
2022-08-31T10:56:40.764Z,0.98
2022-08-31T11:00:40.499Z,0.7
2022-08-31T11:04:40.769Z,1.27
2022-08-31T11:08:40.560Z,1.2
2022-08-31T11:12:40.568Z,1.55
2022-08-31T11:16:40.493Z,0.9
2022-08-31T11:20:40.628Z,1.12
2022-08-31T11:24:40.962Z,1.1
2022-08-31T11:28:40.476Z,1.3
2022-08-31T11:32:40.412Z,0.9
2022-08-31T11:36:41.133Z,0.95
2022-08-31T11:40:40.704Z,1.25
2022-08-31T11:44:40.616Z,0.6
2022-08-31T11:48:40.608Z,0.98
2022-08-31T11:52:40.602Z,0.95
2022-08-31T11:56:40.320Z,0.73
2022-08-31T12:00:39.472Z,0.9
2022-08-31T12:04:40.598Z,1.35
2022-08-31T12:08:40.784Z,0.6
2022-08-31T12:12:40.596Z,1.37
2022-08-31T12:16:41.066Z,0.88
2022-08-31T12:20:40.975Z,0.93
2022-08-31T12:24:40.695Z,1.05
2022-08-31T12:28:40.495Z,0.75
2022-08-31T12:32:40.408Z,1.08
2022-08-31T12:36:40.621Z,0.85
2022-08-31T12:40:40.569Z,0.9
2022-08-31T12:44:41.038Z,1.02
2022-08-31T12:48:40.728Z,0.85
2022-08-31T12:52:40.445Z,0.77
2022-08-31T12:56:40.179Z,0.6
2022-08-31T13:00:41.071Z,1.1
2022-08-31T13:04:40.633Z,1.73
2022-08-31T13:08:40.976Z,0.6
2022-08-31T13:12:40.458Z,0.93
2022-08-31T13:16:40.630Z,0.9
2022-08-31T13:20:40.501Z,0.85
2022-08-31T13:24:40.522Z,0.93
2022-08-31T13:28:40.594Z,0.8
2022-08-31T13:32:40.830Z,0.93
2022-08-31T13:36:41.245Z,1
2022-08-31T13:40:40.683Z,1.05
2022-08-31T13:44:40.564Z,0.88
2022-08-31T13:48:40.490Z,0.93
2022-08-31T13:52:40.576Z,1.1
2022-08-31T13:56:40.452Z,1
2022-08-31T14:00:39.580Z,1.3
2022-08-31T14:04:40.323Z,0.75
2022-08-31T14:08:40.382Z,0.9
2022-08-31T14:12:40.722Z,0.75
2022-08-31T14:16:43.875Z,1.1
2022-08-31T14:20:40.540Z,0.77
2022-08-31T14:24:40.461Z,0.9
2022-08-31T14:28:40.747Z,0.55
2022-08-31T14:32:40.408Z,0.9
2022-08-31T14:36:40.575Z,1.1
2022-08-31T14:40:40.796Z,1.08
2022-08-31T14:44:40.435Z,1.3
2022-08-31T14:48:40.452Z,1.23
2022-08-31T14:52:40.869Z,0.85
2022-08-31T14:56:40.990Z,0.82
2022-08-31T15:00:40.590Z,1
2022-08-31T15:04:44.643Z,1.17
2022-08-31T15:08:40.470Z,1
2022-08-31T15:12:40.406Z,0.7
2022-08-31T15:16:40.569Z,1.1
2022-08-31T15:20:39.996Z,0.73
2022-08-31T15:24:40.821Z,0.95
2022-08-31T15:28:40.650Z,1
2022-08-31T15:32:40.643Z,0.9
2022-08-31T15:36:40.481Z,0.8
2022-08-31T15:40:40.144Z,0.93
2022-08-31T15:44:41.226Z,0.8
2022-08-31T15:48:40.493Z,0.8
2022-08-31T15:52:40.470Z,0.65
2022-08-31T15:56:40.474Z,0.75
2022-08-31T16:00:39.815Z,0.57
2022-08-31T16:04:41.014Z,0.8
2022-08-31T16:08:40.968Z,1
2022-08-31T16:12:40.453Z,0.88
2022-08-31T16:16:40.953Z,0.7
2022-08-31T16:20:40.485Z,0.73
2022-08-31T16:24:40.580Z,0.95
2022-08-31T16:28:40.485Z,1.17
2022-08-31T16:32:40.634Z,0.57
2022-08-31T16:36:40.284Z,0.75
2022-08-31T16:40:40.824Z,0.68
2022-08-31T16:44:40.931Z,0.9
2022-08-31T16:48:40.325Z,0.85
2022-08-31T16:52:40.515Z,0.73
2022-08-31T16:56:41.044Z,1.17
2022-08-31T17:00:40.257Z,0.68
2022-08-31T17:04:52.139Z,0.9
2022-08-31T17:08:40.519Z,1.25
2022-08-31T17:12:40.535Z,0.8
2022-08-31T17:16:40.661Z,1.12
2022-08-31T17:20:40.776Z,1.05
2022-08-31T17:24:40.752Z,1.35
2022-08-31T17:28:40.434Z,1.3
2022-08-31T17:32:44.759Z,1.17
2022-08-31T17:36:40.504Z,0.9
2022-08-31T17:40:40.754Z,1.75
2022-08-31T17:44:39.346Z,1.5
2022-08-31T17:48:40.369Z,1.6
2022-08-31T17:52:40.497Z,1.5
2022-08-31T17:56:41.146Z,1.25
2022-08-31T18:00:40.935Z,1.77
2022-08-31T18:04:40.668Z,2.6
2022-08-31T18:08:40.563Z,1.62
2022-08-31T18:12:40.633Z,1.62
2022-08-31T18:16:41.217Z,1.6
2022-08-31T18:20:39.377Z,1.62
2022-08-31T18:24:41.222Z,1.55
2022-08-31T18:28:40.506Z,1.3
2022-08-31T18:32:42.463Z,1.77
2022-08-31T18:36:40.504Z,1.6
2022-08-31T18:40:41.132Z,1.6
2022-08-31T18:44:40.645Z,1.52
2022-08-31T18:48:41.009Z,1.5
2022-08-31T18:52:45.821Z,1.52
2022-08-31T18:56:40.863Z,2.05
2022-08-31T19:00:40.931Z,2.1
2022-08-31T19:04:40.767Z,1.75
2022-08-31T19:08:40.862Z,2.03
2022-08-31T19:12:40.954Z,2
2022-08-31T19:16:41.419Z,1.83
2022-08-31T19:20:41.123Z,2.15
2022-08-31T19:24:40.871Z,2
2022-08-31T19:28:41.037Z,1.87
2022-08-31T19:32:41.497Z,1.8
2022-08-31T19:36:41.290Z,1.7
2022-08-31T19:40:41.106Z,1.9
2022-08-31T19:45:22.777Z,2.05
2022-08-31T19:48:44.449Z,2.33
2022-08-31T19:52:40.506Z,3.53
2022-08-31T19:56:40.667Z,2.78
2022-08-31T20:00:40.945Z,3.35
2022-08-31T20:04:41.162Z,3.33
2022-08-31T20:08:40.507Z,2.97
2022-08-31T20:12:40.969Z,3.25
2022-08-31T20:16:40.694Z,3.05
2022-08-31T20:20:40.682Z,3.17
2022-08-31T20:24:44.011Z,3.3
2022-08-31T20:28:40.507Z,3.33
2022-08-31T20:32:40.752Z,3.78
2022-08-31T20:36:40.482Z,3.08
2022-08-31T20:40:40.687Z,4.15
2022-08-31T20:44:40.570Z,3.42
2022-08-31T20:48:40.539Z,3.65
2022-08-31T20:52:40.485Z,2.7
2022-08-31T20:56:40.538Z,2.1
2022-08-31T21:00:40.487Z,1.65
2022-08-31T21:04:40.629Z,1.4
2022-08-31T21:08:41.245Z,1.55
2022-08-31T21:12:41.110Z,1.12
2022-08-31T21:16:40.584Z,1.3
2022-08-31T21:20:39.392Z,0.9
2022-08-31T21:24:40.451Z,1.33
2022-08-31T21:28:41.092Z,1.55
2022-08-31T21:32:40.734Z,1.17
2022-08-31T21:36:39.293Z,1.3
2022-08-31T21:40:40.550Z,1.92
2022-08-31T21:44:40.385Z,1.52
2022-08-31T21:48:40.502Z,1.5
2022-08-31T21:52:40.201Z,1.45
2022-08-31T21:56:41.210Z,1.2
2022-08-31T22:00:39.807Z,1.5
2022-08-31T22:04:39.457Z,1.33
2022-08-31T22:08:40.451Z,1.6
2022-08-31T22:12:40.523Z,1.33
2022-08-31T22:16:40.643Z,1.1
2022-08-31T22:20:41.199Z,1.62
2022-08-31T22:24:40.638Z,1.2
2022-08-31T22:28:40.448Z,1.23
2022-08-31T22:32:40.550Z,2.12
2022-08-31T22:36:40.759Z,1.1
2022-08-31T22:40:40.665Z,1.2
2022-08-31T22:44:40.688Z,1.35
2022-08-31T22:48:40.518Z,1.3
2022-08-31T22:52:40.715Z,1.25
2022-08-31T22:56:40.472Z,1.3
2022-08-31T23:00:40.448Z,1.2
2022-08-31T23:04:43.577Z,1.55
2022-08-31T23:08:40.716Z,0.88
2022-08-31T23:12:40.288Z,1.33
2022-08-31T23:16:40.526Z,1.15
2022-08-31T23:20:40.862Z,0.9
2022-08-31T23:24:40.435Z,1.48
2022-08-31T23:28:41.223Z,1.05
2022-08-31T23:32:40.571Z,1.08
2022-08-31T23:36:40.590Z,1.1
2022-08-31T23:40:40.787Z,1.12
2022-08-31T23:44:40.731Z,0.85
2022-08-31T23:48:40.621Z,1
2022-08-31T23:52:40.483Z,0.95
2022-08-31T23:56:40.256Z,1
